Aérodrome :
LOGIN :

S'inscrire | Disclaimer

   EN    FR    IT 

 










Légende :    VFR   VFR Marginal   IFR   IFR Intensif   IFR Très Intensif
Visi : 
Plafond : 
>= 8 km
>= 3000ft
5 à 8 km
1000 à 3000 ft
1500m à 5 km
500 à 1000 ft
800 à 1500m
200 à 500 ft
< 800m
< 200 ft
Symboles :   Orages  Brouillard  Fortes neiges  Fortes précipitations  Vent > 20 kt
SIGMETs :   Divers  Orages  Givrage  Turbulence  Onde Orograph.  Cendres Volcan.







- Altitude de l'aérodrome : -11 ft
- Code IATA : AMS


EHAM - Amsterdam Schiphol

DERNIER METAR :
  • 232355Z 16007KT 9999 FEW010 SCT022CB 13/13 Q1010 RESHRA TEMPO 6000 SHRA

METARs EXPIRÉS :
  • 232325Z 18010KT 140V220 6000 SHRA FEW010 SCT022CB 13/12 Q1010 RESHRA TEMPO 9999 -SHRA
  • 232255Z 18010KT 9999 -SHRA FEW011 SCT022CB 14/12 Q1010 RETSRA TEMPO 6000 SHRA
  • 232225Z 18006KT 8000 SHRA FEW012 SCT027CB 15/13 Q1010 RESHRA TEMPO 6000
  • 232155Z 19011KT 5000 SHRA FEW012 SCT027CB 15/13 Q1010 TEMPO 9999 NSW
  • 232125Z 17010KT 9999 -SHRA FEW012 SCT027CB 15/13 Q1010 TEMPO 6000 SHRA

TAF TAF EHAM
Valide du 24 à 00h jusqu'au 25 à 06h UTC


232307Z 2400/2506 19007KT 9999 SCT025
TEMPO 2400/2418 6000 SHRA SCT025CB
PROB30
TEMPO 2400/2408 24010G20KT 4000 TSRA SCT020CB BKN030
BECMG 2411/2414 33010KT
BECMG 2418/2421 35007KT
PROB30
TEMPO 2418/2505 7000 SHRA RA SCT025CB
Pas de NOTAMs connus pour ce terrain.



MET'MAP, la Météo Aéronautique d'un coup d'oeil ! - Copyright ORBIFLY Décembre 2007 - Disclaimer

ORBIFLY MET'MAP TEAM :

Programmation & Développement : Alexandra Zaïnal
Conception & Développement : Baudouin d'Aumeries
Co-Programmation & Développement : Marc-Olivier Méhu
Soutien technique & logistique : Manuel Goepfert

Contact : metmap@orbifly.com




SOURCES & CREDITS :

   NOAA